sensor_id;sensor_type;location;lat;lon;timestamp;P1;durP1;ratioP1;P2;durP2;ratioP2
52031;SDS011;38044;45.148;39.604;2024-01-10T00:01:59;11.23;;;6.28;;
52031;SDS011;38044;45.148;39.604;2024-01-10T00:04:25;13.98;;;6.65;;
52031;SDS011;38044;45.148;39.604;2024-01-10T00:06:51;8.55;;;4.95;;
52031;SDS011;38044;45.148;39.604;2024-01-10T00:09:17;9.93;;;4.82;;
52031;SDS011;38044;45.148;39.604;2024-01-10T00:11:43;8.85;;;5.00;;
52031;SDS011;38044;45.148;39.604;2024-01-10T00:14:09;9.38;;;4.53;;
52031;SDS011;38044;45.148;39.604;2024-01-10T00:16:35;11.93;;;6.05;;
52031;SDS011;38044;45.148;39.604;2024-01-10T00:19:01;9.07;;;5.40;;
52031;SDS011;38044;45.148;39.604;2024-01-10T00:21:27;9.25;;;4.60;;
52031;SDS011;38044;45.148;39.604;2024-01-10T00:23:54;7.60;;;4.40;;
52031;SDS011;38044;45.148;39.604;2024-01-10T00:26:20;10.20;;;4.75;;
52031;SDS011;38044;45.148;39.604;2024-01-10T00:28:46;10.35;;;4.90;;
52031;SDS011;38044;45.148;39.604;2024-01-10T00:31:12;12.77;;;6.47;;
52031;SDS011;38044;45.148;39.604;2024-01-10T00:33:39;10.23;;;4.35;;
52031;SDS011;38044;45.148;39.604;2024-01-10T00:36:05;9.57;;;4.53;;
52031;SDS011;38044;45.148;39.604;2024-01-10T00:38:32;10.13;;;5.18;;
52031;SDS011;38044;45.148;39.604;2024-01-10T00:40:58;9.98;;;5.32;;
52031;SDS011;38044;45.148;39.604;2024-01-10T00:43:24;7.70;;;4.90;;
52031;SDS011;38044;45.148;39.604;2024-01-10T00:45:50;8.88;;;5.55;;
52031;SDS011;38044;45.148;39.604;2024-01-10T00:48:16;8.65;;;4.57;;
52031;SDS011;38044;45.148;39.604;2024-01-10T00:50:45;10.70;;;4.78;;
52031;SDS011;38044;45.148;39.604;2024-01-10T00:53:11;8.45;;;4.47;;
52031;SDS011;38044;45.148;39.604;2024-01-10T00:55:38;10.30;;;5.40;;
52031;SDS011;38044;45.148;39.604;2024-01-10T00:58:04;9.45;;;5.20;;
52031;SDS011;38044;45.148;39.604;2024-01-10T01:00:30;12.40;;;6.78;;
52031;SDS011;38044;45.148;39.604;2024-01-10T01:02:57;9.70;;;5.15;;
52031;SDS011;38044;45.148;39.604;2024-01-10T01:05:23;10.27;;;5.20;;
52031;SDS011;38044;45.148;39.604;2024-01-10T01:07:48;11.80;;;6.00;;
52031;SDS011;38044;45.148;39.604;2024-01-10T01:10:14;9.38;;;5.47;;
52031;SDS011;38044;45.148;39.604;2024-01-10T01:12:40;7.40;;;4.55;;
52031;SDS011;38044;45.148;39.604;2024-01-10T01:15:07;8.63;;;4.95;;
52031;SDS011;38044;45.148;39.604;2024-01-10T01:17:33;6.63;;;4.38;;
52031;SDS011;38044;45.148;39.604;2024-01-10T01:19:59;8.95;;;5.32;;
52031;SDS011;38044;45.148;39.604;2024-01-10T01:22:25;9.50;;;5.05;;
52031;SDS011;38044;45.148;39.604;2024-01-10T01:24:51;11.57;;;5.88;;
52031;SDS011;38044;45.148;39.604;2024-01-10T01:27:17;8.35;;;5.20;;
52031;SDS011;38044;45.148;39.604;2024-01-10T01:29:43;8.95;;;4.53;;
52031;SDS011;38044;45.148;39.604;2024-01-10T01:32:09;8.75;;;5.10;;
52031;SDS011;38044;45.148;39.604;2024-01-10T01:34:35;9.13;;;4.72;;
52031;SDS011;38044;45.148;39.604;2024-01-10T01:37:00;10.25;;;5.53;;
52031;SDS011;38044;45.148;39.604;2024-01-10T01:39:27;8.43;;;4.45;;
52031;SDS011;38044;45.148;39.604;2024-01-10T01:41:52;11.85;;;6.38;;
52031;SDS011;38044;45.148;39.604;2024-01-10T01:44:18;12.15;;;5.93;;
52031;SDS011;38044;45.148;39.604;2024-01-10T01:46:45;11.35;;;5.55;;
52031;SDS011;38044;45.148;39.604;2024-01-10T01:49:14;7.38;;;4.55;;
52031;SDS011;38044;45.148;39.604;2024-01-10T01:51:40;9.77;;;4.70;;
52031;SDS011;38044;45.148;39.604;2024-01-10T01:54:07;11.68;;;5.18;;
52031;SDS011;38044;45.148;39.604;2024-01-10T01:56:35;10.35;;;5.95;;
52031;SDS011;38044;45.148;39.604;2024-01-10T01:59:02;9.02;;;5.28;;
52031;SDS011;38044;45.148;39.604;2024-01-10T02:01:30;14.98;;;7.78;;
52031;SDS011;38044;45.148;39.604;2024-01-10T02:03:56;16.73;;;8.60;;
52031;SDS011;38044;45.148;39.604;2024-01-10T02:06:22;14.73;;;8.23;;
52031;SDS011;38044;45.148;39.604;2024-01-10T02:08:48;13.10;;;7.50;;
52031;SDS011;38044;45.148;39.604;2024-01-10T02:11:14;15.13;;;6.82;;
52031;SDS011;38044;45.148;39.604;2024-01-10T02:13:41;10.13;;;6.15;;
52031;SDS011;38044;45.148;39.604;2024-01-10T02:16:07;7.85;;;4.95;;
52031;SDS011;38044;45.148;39.604;2024-01-10T02:18:34;10.65;;;5.90;;
52031;SDS011;38044;45.148;39.604;2024-01-10T02:21:00;9.52;;;4.45;;
52031;SDS011;38044;45.148;39.604;2024-01-10T02:23:26;9.98;;;5.10;;
52031;SDS011;38044;45.148;39.604;2024-01-10T02:25:52;12.23;;;7.18;;
52031;SDS011;38044;45.148;39.604;2024-01-10T02:28:18;9.88;;;5.82;;
52031;SDS011;38044;45.148;39.604;2024-01-10T02:30:44;9.75;;;5.68;;
52031;SDS011;38044;45.148;39.604;2024-01-10T02:33:10;11.30;;;5.75;;
52031;SDS011;38044;45.148;39.604;2024-01-10T02:35:36;11.57;;;5.65;;
52031;SDS011;38044;45.148;39.604;2024-01-10T02:38:02;9.85;;;5.13;;
52031;SDS011;38044;45.148;39.604;2024-01-10T02:40:29;9.20;;;5.18;;
52031;SDS011;38044;45.148;39.604;2024-01-10T02:42:55;11.23;;;5.60;;
52031;SDS011;38044;45.148;39.604;2024-01-10T02:45:21;10.27;;;5.53;;
52031;SDS011;38044;45.148;39.604;2024-01-10T02:47:46;8.65;;;5.20;;
52031;SDS011;38044;45.148;39.604;2024-01-10T02:50:12;11.18;;;5.30;;
52031;SDS011;38044;45.148;39.604;2024-01-10T02:52:38;14.20;;;7.32;;
52031;SDS011;38044;45.148;39.604;2024-01-10T02:55:04;11.73;;;6.72;;
52031;SDS011;38044;45.148;39.604;2024-01-10T02:57:30;18.70;;;8.63;;
52031;SDS011;38044;45.148;39.604;2024-01-10T02:59:56;19.23;;;9.70;;
52031;SDS011;38044;45.148;39.604;2024-01-10T03:02:22;18.88;;;9.93;;
52031;SDS011;38044;45.148;39.604;2024-01-10T03:04:48;20.50;;;10.48;;
52031;SDS011;38044;45.148;39.604;2024-01-10T03:07:15;20.88;;;10.38;;
52031;SDS011;38044;45.148;39.604;2024-01-10T03:09:41;25.08;;;10.50;;
52031;SDS011;38044;45.148;39.604;2024-01-10T03:12:06;17.95;;;9.13;;
52031;SDS011;38044;45.148;39.604;2024-01-10T03:14:33;19.92;;;9.88;;
52031;SDS011;38044;45.148;39.604;2024-01-10T03:17:02;20.17;;;9.80;;
52031;SDS011;38044;45.148;39.604;2024-01-10T03:19:28;18.38;;;9.38;;
52031;SDS011;38044;45.148;39.604;2024-01-10T03:21:53;12.45;;;6.60;;
52031;SDS011;38044;45.148;39.604;2024-01-10T03:24:19;11.63;;;5.57;;
52031;SDS011;38044;45.148;39.604;2024-01-10T03:26:45;8.85;;;4.72;;
52031;SDS011;38044;45.148;39.604;2024-01-10T03:29:11;15.02;;;7.10;;
52031;SDS011;38044;45.148;39.604;2024-01-10T03:31:37;16.70;;;9.05;;
52031;SDS011;38044;45.148;39.604;2024-01-10T03:34:03;22.50;;;9.93;;
52031;SDS011;38044;45.148;39.604;2024-01-10T03:36:29;15.68;;;8.55;;
52031;SDS011;38044;45.148;39.604;2024-01-10T03:38:55;16.42;;;8.75;;
52031;SDS011;38044;45.148;39.604;2024-01-10T03:41:21;16.30;;;8.63;;
52031;SDS011;38044;45.148;39.604;2024-01-10T03:43:47;13.18;;;6.85;;
52031;SDS011;38044;45.148;39.604;2024-01-10T03:46:13;13.20;;;6.15;;
52031;SDS011;38044;45.148;39.604;2024-01-10T03:48:39;9.10;;;5.00;;
52031;SDS011;38044;45.148;39.604;2024-01-10T03:51:15;12.20;;;6.13;;
52031;SDS011;38044;45.148;39.604;2024-01-10T03:53:41;12.30;;;5.93;;
52031;SDS011;38044;45.148;39.604;2024-01-10T03:56:07;9.55;;;5.05;;
52031;SDS011;38044;45.148;39.604;2024-01-10T03:58:34;8.50;;;5.50;;
52031;SDS011;38044;45.148;39.604;2024-01-10T04:01:03;11.15;;;5.25;;
52031;SDS011;38044;45.148;39.604;2024-01-10T04:05:58;9.93;;;4.97;;
52031;SDS011;38044;45.148;39.604;2024-01-10T04:08:25;9.73;;;4.53;;
52031;SDS011;38044;45.148;39.604;2024-01-10T04:10:52;8.93;;;4.80;;
52031;SDS011;38044;45.148;39.604;2024-01-10T04:13:18;10.10;;;5.03;;
52031;SDS011;38044;45.148;39.604;2024-01-10T04:15:44;9.10;;;5.32;;
52031;SDS011;38044;45.148;39.604;2024-01-10T04:18:10;10.63;;;5.32;;
52031;SDS011;38044;45.148;39.604;2024-01-10T04:20:36;9.93;;;5.22;;
52031;SDS011;38044;45.148;39.604;2024-01-10T04:23:02;10.05;;;5.75;;
52031;SDS011;38044;45.148;39.604;2024-01-10T04:25:28;11.40;;;5.32;;
52031;SDS011;38044;45.148;39.604;2024-01-10T04:27:54;11.48;;;5.97;;
52031;SDS011;38044;45.148;39.604;2024-01-10T04:30:20;11.05;;;6.10;;
52031;SDS011;38044;45.148;39.604;2024-01-10T04:32:46;12.40;;;5.75;;
52031;SDS011;38044;45.148;39.604;2024-01-10T04:35:12;13.82;;;6.40;;
52031;SDS011;38044;45.148;39.604;2024-01-10T04:37:38;12.32;;;5.78;;
52031;SDS011;38044;45.148;39.604;2024-01-10T04:40:05;12.95;;;6.22;;
52031;SDS011;38044;45.148;39.604;2024-01-10T04:42:32;10.93;;;5.80;;
52031;SDS011;38044;45.148;39.604;2024-01-10T04:44:58;12.85;;;7.03;;
52031;SDS011;38044;45.148;39.604;2024-01-10T04:47:23;12.48;;;6.60;;
52031;SDS011;38044;45.148;39.604;2024-01-10T04:49:49;15.02;;;6.30;;
52031;SDS011;38044;45.148;39.604;2024-01-10T04:52:18;14.00;;;6.35;;
52031;SDS011;38044;45.148;39.604;2024-01-10T04:54:45;12.63;;;7.13;;
52031;SDS011;38044;45.148;39.604;2024-01-10T04:57:11;12.27;;;7.05;;
52031;SDS011;38044;45.148;39.604;2024-01-10T04:59:37;15.35;;;7.65;;
52031;SDS011;38044;45.148;39.604;2024-01-10T05:02:03;13.50;;;6.90;;
52031;SDS011;38044;45.148;39.604;2024-01-10T05:04:29;14.23;;;7.05;;
52031;SDS011;38044;45.148;39.604;2024-01-10T05:06:54;11.63;;;7.05;;
52031;SDS011;38044;45.148;39.604;2024-01-10T05:09:20;13.15;;;7.47;;
52031;SDS011;38044;45.148;39.604;2024-01-10T05:11:46;12.25;;;7.07;;
52031;SDS011;38044;45.148;39.604;2024-01-10T05:14:13;12.45;;;6.40;;
52031;SDS011;38044;45.148;39.604;2024-01-10T05:16:39;13.63;;;7.07;;
52031;SDS011;38044;45.148;39.604;2024-01-10T05:19:05;14.10;;;6.38;;
52031;SDS011;38044;45.148;39.604;2024-01-10T05:21:31;12.00;;;6.05;;
52031;SDS011;38044;45.148;39.604;2024-01-10T05:23:58;10.48;;;6.80;;
52031;SDS011;38044;45.148;39.604;2024-01-10T05:26:23;13.63;;;6.72;;
52031;SDS011;38044;45.148;39.604;2024-01-10T05:28:49;12.82;;;6.80;;
52031;SDS011;38044;45.148;39.604;2024-01-10T05:31:15;11.60;;;6.15;;
52031;SDS011;38044;45.148;39.604;2024-01-10T05:33:41;12.27;;;6.00;;
52031;SDS011;38044;45.148;39.604;2024-01-10T05:36:08;10.35;;;6.22;;
52031;SDS011;38044;45.148;39.604;2024-01-10T05:38:37;12.88;;;7.03;;
52031;SDS011;38044;45.148;39.604;2024-01-10T05:41:03;11.95;;;7.25;;
52031;SDS011;38044;45.148;39.604;2024-01-10T05:43:29;11.82;;;6.05;;
52031;SDS011;38044;45.148;39.604;2024-01-10T05:45:55;11.77;;;6.53;;
52031;SDS011;38044;45.148;39.604;2024-01-10T05:48:21;9.70;;;5.72;;
52031;SDS011;38044;45.148;39.604;2024-01-10T05:50:46;10.32;;;5.95;;
52031;SDS011;38044;45.148;39.604;2024-01-10T05:53:12;12.52;;;6.10;;
52031;SDS011;38044;45.148;39.604;2024-01-10T05:55:42;11.13;;;6.10;;
52031;SDS011;38044;45.148;39.604;2024-01-10T05:58:11;8.85;;;5.45;;
52031;SDS011;38044;45.148;39.604;2024-01-10T06:00:37;8.35;;;4.93;;
52031;SDS011;38044;45.148;39.604;2024-01-10T06:03:03;9.57;;;5.50;;
52031;SDS011;38044;45.148;39.604;2024-01-10T06:05:29;15.27;;;5.88;;
52031;SDS011;38044;45.148;39.604;2024-01-10T06:07:57;10.15;;;5.13;;
52031;SDS011;38044;45.148;39.604;2024-01-10T06:10:23;11.13;;;6.05;;
52031;SDS011;38044;45.148;39.604;2024-01-10T06:12:49;10.23;;;5.20;;
52031;SDS011;38044;45.148;39.604;2024-01-10T06:15:15;9.98;;;5.18;;
52031;SDS011;38044;45.148;39.604;2024-01-10T06:17:41;12.10;;;5.85;;
52031;SDS011;38044;45.148;39.604;2024-01-10T06:20:07;9.90;;;5.90;;
52031;SDS011;38044;45.148;39.604;2024-01-10T06:22:34;8.48;;;5.18;;
52031;SDS011;38044;45.148;39.604;2024-01-10T06:25:00;9.15;;;5.75;;
52031;SDS011;38044;45.148;39.604;2024-01-10T06:27:25;9.52;;;5.07;;
52031;SDS011;38044;45.148;39.604;2024-01-10T06:29:51;7.85;;;4.88;;
52031;SDS011;38044;45.148;39.604;2024-01-10T06:32:17;10.00;;;5.03;;
52031;SDS011;38044;45.148;39.604;2024-01-10T06:34:43;8.02;;;5.35;;
52031;SDS011;38044;45.148;39.604;2024-01-10T06:37:09;9.27;;;5.10;;
52031;SDS011;38044;45.148;39.604;2024-01-10T06:39:35;9.30;;;6.13;;
52031;SDS011;38044;45.148;39.604;2024-01-10T06:42:02;8.68;;;6.03;;
52031;SDS011;38044;45.148;39.604;2024-01-10T06:44:36;12.65;;;7.90;;
52031;SDS011;38044;45.148;39.604;2024-01-10T06:47:02;12.80;;;8.30;;
52031;SDS011;38044;45.148;39.604;2024-01-10T06:49:29;14.00;;;8.70;;
52031;SDS011;38044;45.148;39.604;2024-01-10T06:51:55;14.38;;;8.95;;
52031;SDS011;38044;45.148;39.604;2024-01-10T06:54:21;15.68;;;9.38;;
52031;SDS011;38044;45.148;39.604;2024-01-10T06:56:46;17.42;;;9.95;;
52031;SDS011;38044;45.148;39.604;2024-01-10T06:59:12;15.65;;;9.60;;
52031;SDS011;38044;45.148;39.604;2024-01-10T07:01:38;15.07;;;9.10;;
52031;SDS011;38044;45.148;39.604;2024-01-10T07:04:04;16.25;;;10.32;;
52031;SDS011;38044;45.148;39.604;2024-01-10T07:06:30;14.60;;;8.98;;
52031;SDS011;38044;45.148;39.604;2024-01-10T07:08:56;13.68;;;9.02;;
52031;SDS011;38044;45.148;39.604;2024-01-10T07:11:23;14.80;;;8.77;;
52031;SDS011;38044;45.148;39.604;2024-01-10T07:13:49;15.02;;;10.05;;
52031;SDS011;38044;45.148;39.604;2024-01-10T07:16:15;18.33;;;11.40;;
52031;SDS011;38044;45.148;39.604;2024-01-10T07:18:42;19.60;;;12.13;;
52031;SDS011;38044;45.148;39.604;2024-01-10T07:21:08;19.63;;;12.20;;
52031;SDS011;38044;45.148;39.604;2024-01-10T07:23:35;19.65;;;11.65;;
52031;SDS011;38044;45.148;39.604;2024-01-10T07:26:05;18.50;;;10.52;;
52031;SDS011;38044;45.148;39.604;2024-01-10T07:28:31;22.08;;;11.52;;
52031;SDS011;38044;45.148;39.604;2024-01-10T07:30:58;19.25;;;11.00;;
52031;SDS011;38044;45.148;39.604;2024-01-10T07:33:25;18.58;;;9.77;;
52031;SDS011;38044;45.148;39.604;2024-01-10T07:35:51;18.70;;;9.68;;
52031;SDS011;38044;45.148;39.604;2024-01-10T07:38:18;14.60;;;8.63;;
52031;SDS011;38044;45.148;39.604;2024-01-10T07:40:44;17.70;;;8.70;;
52031;SDS011;38044;45.148;39.604;2024-01-10T07:43:09;18.83;;;9.75;;
52031;SDS011;38044;45.148;39.604;2024-01-10T07:45:36;17.77;;;10.00;;
52031;SDS011;38044;45.148;39.604;2024-01-10T07:48:02;20.02;;;11.02;;
52031;SDS011;38044;45.148;39.604;2024-01-10T07:50:28;18.52;;;10.35;;
52031;SDS011;38044;45.148;39.604;2024-01-10T07:52:54;17.70;;;10.80;;
52031;SDS011;38044;45.148;39.604;2024-01-10T07:55:20;16.63;;;10.15;;
52031;SDS011;38044;45.148;39.604;2024-01-10T07:57:45;19.67;;;10.55;;
52031;SDS011;38044;45.148;39.604;2024-01-10T08:00:11;16.63;;;10.52;;
52031;SDS011;38044;45.148;39.604;2024-01-10T08:02:38;16.63;;;10.30;;
52031;SDS011;38044;45.148;39.604;2024-01-10T08:05:05;15.85;;;9.93;;
52031;SDS011;38044;45.148;39.604;2024-01-10T08:07:35;18.00;;;10.57;;
52031;SDS011;38044;45.148;39.604;2024-01-10T08:10:09;20.27;;;10.50;;
52031;SDS011;38044;45.148;39.604;2024-01-10T08:12:38;19.33;;;10.40;;
52031;SDS011;38044;45.148;39.604;2024-01-10T08:15:06;18.10;;;9.98;;
52031;SDS011;38044;45.148;39.604;2024-01-10T08:17:33;17.98;;;9.90;;
52031;SDS011;38044;45.148;39.604;2024-01-10T08:19:59;17.83;;;10.52;;
52031;SDS011;38044;45.148;39.604;2024-01-10T08:22:26;16.88;;;10.32;;
52031;SDS011;38044;45.148;39.604;2024-01-10T08:24:52;18.38;;;10.55;;
52031;SDS011;38044;45.148;39.604;2024-01-10T08:27:18;17.63;;;10.48;;
52031;SDS011;38044;45.148;39.604;2024-01-10T08:29:43;18.20;;;10.73;;
52031;SDS011;38044;45.148;39.604;2024-01-10T08:32:10;19.33;;;11.52;;
52031;SDS011;38044;45.148;39.604;2024-01-10T08:34:36;18.92;;;10.48;;
52031;SDS011;38044;45.148;39.604;2024-01-10T08:37:02;22.58;;;12.32;;
52031;SDS011;38044;45.148;39.604;2024-01-10T08:39:28;20.75;;;10.88;;
52031;SDS011;38044;45.148;39.604;2024-01-10T08:41:58;20.88;;;11.52;;
52031;SDS011;38044;45.148;39.604;2024-01-10T08:44:24;22.83;;;12.02;;
52031;SDS011;38044;45.148;39.604;2024-01-10T08:46:50;34.10;;;14.93;;
52031;SDS011;38044;45.148;39.604;2024-01-10T08:49:19;39.88;;;18.10;;
52031;SDS011;38044;45.148;39.604;2024-01-10T08:51:44;40.40;;;17.83;;
52031;SDS011;38044;45.148;39.604;2024-01-10T08:54:11;25.85;;;13.45;;
52031;SDS011;38044;45.148;39.604;2024-01-10T08:56:44;27.40;;;14.45;;
52031;SDS011;38044;45.148;39.604;2024-01-10T08:59:11;26.70;;;15.02;;
52031;SDS011;38044;45.148;39.604;2024-01-10T09:01:37;28.05;;;15.23;;
52031;SDS011;38044;45.148;39.604;2024-01-10T09:04:07;30.48;;;18.85;;
52031;SDS011;38044;45.148;39.604;2024-01-10T09:06:33;25.38;;;13.98;;
52031;SDS011;38044;45.148;39.604;2024-01-10T09:09:01;21.58;;;12.45;;
52031;SDS011;38044;45.148;39.604;2024-01-10T09:11:27;23.05;;;13.20;;
52031;SDS011;38044;45.148;39.604;2024-01-10T09:13:53;25.88;;;14.50;;
52031;SDS011;38044;45.148;39.604;2024-01-10T09:16:19;29.27;;;16.67;;
52031;SDS011;38044;45.148;39.604;2024-01-10T09:18:45;32.80;;;18.00;;
52031;SDS011;38044;45.148;39.604;2024-01-10T09:21:11;34.80;;;19.15;;
52031;SDS011;38044;45.148;39.604;2024-01-10T09:23:37;31.88;;;18.55;;
52031;SDS011;38044;45.148;39.604;2024-01-10T09:26:03;31.70;;;18.38;;
52031;SDS011;38044;45.148;39.604;2024-01-10T09:28:29;33.85;;;19.02;;
52031;SDS011;38044;45.148;39.604;2024-01-10T09:30:55;32.80;;;18.40;;
52031;SDS011;38044;45.148;39.604;2024-01-10T09:33:21;36.17;;;19.33;;
52031;SDS011;38044;45.148;39.604;2024-01-10T09:35:48;68.85;;;30.30;;
52031;SDS011;38044;45.148;39.604;2024-01-10T09:38:14;42.17;;;22.58;;
52031;SDS011;38044;45.148;39.604;2024-01-10T09:40:40;38.17;;;21.23;;
52031;SDS011;38044;45.148;39.604;2024-01-10T09:43:07;54.75;;;28.52;;
52031;SDS011;38044;45.148;39.604;2024-01-10T09:45:35;46.28;;;23.30;;
52031;SDS011;38044;45.148;39.604;2024-01-10T09:48:03;44.72;;;21.80;;
52031;SDS011;38044;45.148;39.604;2024-01-10T09:50:29;37.40;;;21.33;;
52031;SDS011;38044;45.148;39.604;2024-01-10T09:52:58;51.38;;;25.48;;
52031;SDS011;38044;45.148;39.604;2024-01-10T09:55:33;45.70;;;22.83;;
52031;SDS011;38044;45.148;39.604;2024-01-10T09:58:02;38.40;;;21.60;;
52031;SDS011;38044;45.148;39.604;2024-01-10T10:00:30;41.58;;;23.15;;
52031;SDS011;38044;45.148;39.604;2024-01-10T10:02:56;40.35;;;22.02;;
52031;SDS011;38044;45.148;39.604;2024-01-10T10:05:24;45.67;;;23.05;;
52031;SDS011;38044;45.148;39.604;2024-01-10T10:07:51;35.67;;;20.25;;
52031;SDS011;38044;45.148;39.604;2024-01-10T10:10:20;29.92;;;17.10;;
52031;SDS011;38044;45.148;39.604;2024-01-10T10:12:50;24.75;;;15.43;;
52031;SDS011;38044;45.148;39.604;2024-01-10T10:15:23;24.52;;;15.57;;
52031;SDS011;38044;45.148;39.604;2024-01-10T10:17:53;19.63;;;12.45;;
52031;SDS011;38044;45.148;39.604;2024-01-10T10:20:27;21.30;;;12.15;;
52031;SDS011;38044;45.148;39.604;2024-01-10T10:23:07;21.75;;;12.10;;
52031;SDS011;38044;45.148;39.604;2024-01-10T10:25:42;25.50;;;12.68;;
52031;SDS011;38044;45.148;39.604;2024-01-10T10:28:09;21.05;;;13.30;;
52031;SDS011;38044;45.148;39.604;2024-01-10T10:30:35;24.75;;;13.82;;
52031;SDS011;38044;45.148;39.604;2024-01-10T10:33:01;24.85;;;13.10;;
52031;SDS011;38044;45.148;39.604;2024-01-10T10:35:28;27.27;;;14.50;;
52031;SDS011;38044;45.148;39.604;2024-01-10T10:37:54;24.13;;;13.75;;
52031;SDS011;38044;45.148;39.604;2024-01-10T10:40:20;22.25;;;12.85;;
52031;SDS011;38044;45.148;39.604;2024-01-10T10:42:48;25.08;;;13.15;;
52031;SDS011;38044;45.148;39.604;2024-01-10T10:45:18;21.85;;;12.50;;
52031;SDS011;38044;45.148;39.604;2024-01-10T10:47:45;17.88;;;11.70;;
52031;SDS011;38044;45.148;39.604;2024-01-10T10:50:23;20.25;;;11.60;;
52031;SDS011;38044;45.148;39.604;2024-01-10T10:52:51;15.90;;;10.32;;
52031;SDS011;38044;45.148;39.604;2024-01-10T10:55:18;16.77;;;10.23;;
52031;SDS011;38044;45.148;39.604;2024-01-10T10:57:44;14.25;;;9.85;;
52031;SDS011;38044;45.148;39.604;2024-01-10T11:00:12;14.00;;;9.10;;
52031;SDS011;38044;45.148;39.604;2024-01-10T11:02:43;12.80;;;8.25;;
52031;SDS011;38044;45.148;39.604;2024-01-10T11:05:10;11.38;;;7.10;;
52031;SDS011;38044;45.148;39.604;2024-01-10T11:07:37;13.80;;;8.45;;
52031;SDS011;38044;45.148;39.604;2024-01-10T11:10:11;12.68;;;7.40;;
52031;SDS011;38044;45.148;39.604;2024-01-10T11:15:56;13.63;;;8.73;;
52031;SDS011;38044;45.148;39.604;2024-01-10T11:18:59;13.38;;;8.65;;
52031;SDS011;38044;45.148;39.604;2024-01-10T11:21:56;11.10;;;8.20;;
52031;SDS011;38044;45.148;39.604;2024-01-10T11:24:35;13.48;;;8.20;;
52031;SDS011;38044;45.148;39.604;2024-01-10T11:27:12;12.63;;;8.55;;
52031;SDS011;38044;45.148;39.604;2024-01-10T11:29:40;13.02;;;8.57;;
52031;SDS011;38044;45.148;39.604;2024-01-10T11:32:12;12.88;;;8.93;;
52031;SDS011;38044;45.148;39.604;2024-01-10T11:34:49;12.13;;;8.50;;
52031;SDS011;38044;45.148;39.604;2024-01-10T11:37:42;15.10;;;9.45;;
52031;SDS011;38044;45.148;39.604;2024-01-10T11:40:09;16.27;;;10.67;;
52031;SDS011;38044;45.148;39.604;2024-01-10T11:42:41;13.52;;;9.18;;
52031;SDS011;38044;45.148;39.604;2024-01-10T11:45:08;21.13;;;11.27;;
52031;SDS011;38044;45.148;39.604;2024-01-10T11:47:34;22.98;;;10.93;;
52031;SDS011;38044;45.148;39.604;2024-01-10T11:50:07;17.13;;;10.00;;
52031;SDS011;38044;45.148;39.604;2024-01-10T11:52:33;22.00;;;11.18;;
52031;SDS011;38044;45.148;39.604;2024-01-10T11:55:00;20.63;;;11.73;;
52031;SDS011;38044;45.148;39.604;2024-01-10T11:57:27;16.35;;;11.20;;
52031;SDS011;38044;45.148;39.604;2024-01-10T11:59:54;19.60;;;10.93;;
52031;SDS011;38044;45.148;39.604;2024-01-10T12:02:24;18.45;;;11.65;;
52031;SDS011;38044;45.148;39.604;2024-01-10T12:04:53;19.52;;;11.73;;
52031;SDS011;38044;45.148;39.604;2024-01-10T12:07:20;34.22;;;14.80;;
52031;SDS011;38044;45.148;39.604;2024-01-10T12:09:46;19.40;;;12.13;;
52031;SDS011;38044;45.148;39.604;2024-01-10T12:12:13;17.50;;;11.73;;
52031;SDS011;38044;45.148;39.604;2024-01-10T12:14:40;15.55;;;10.35;;
52031;SDS011;38044;45.148;39.604;2024-01-10T12:17:09;14.38;;;9.93;;
52031;SDS011;38044;45.148;39.604;2024-01-10T12:19:35;16.90;;;10.18;;
52031;SDS011;38044;45.148;39.604;2024-01-10T12:22:04;21.42;;;13.85;;
52031;SDS011;38044;45.148;39.604;2024-01-10T12:24:31;22.48;;;13.02;;
52031;SDS011;38044;45.148;39.604;2024-01-10T12:26:57;16.55;;;11.10;;
52031;SDS011;38044;45.148;39.604;2024-01-10T12:29:23;15.43;;;11.10;;
52031;SDS011;38044;45.148;39.604;2024-01-10T12:31:50;17.17;;;11.38;;
52031;SDS011;38044;45.148;39.604;2024-01-10T12:34:16;16.83;;;10.60;;
52031;SDS011;38044;45.148;39.604;2024-01-10T12:36:43;14.85;;;9.73;;
52031;SDS011;38044;45.148;39.604;2024-01-10T12:39:09;17.23;;;10.18;;
52031;SDS011;38044;45.148;39.604;2024-01-10T12:41:37;14.50;;;9.27;;
52031;SDS011;38044;45.148;39.604;2024-01-10T12:44:03;16.77;;;9.70;;
52031;SDS011;38044;45.148;39.604;2024-01-10T12:46:30;17.42;;;11.35;;
52031;SDS011;38044;45.148;39.604;2024-01-10T12:51:32;18.83;;;11.50;;
52031;SDS011;38044;45.148;39.604;2024-01-10T12:54:01;18.73;;;11.23;;
52031;SDS011;38044;45.148;39.604;2024-01-10T12:56:29;19.00;;;12.52;;
52031;SDS011;38044;45.148;39.604;2024-01-10T12:58:55;21.77;;;13.18;;
52031;SDS011;38044;45.148;39.604;2024-01-10T13:01:22;23.35;;;12.68;;
52031;SDS011;38044;45.148;39.604;2024-01-10T13:03:49;20.85;;;13.70;;
52031;SDS011;38044;45.148;39.604;2024-01-10T13:06:15;20.40;;;13.15;;
52031;SDS011;38044;45.148;39.604;2024-01-10T13:08:42;19.83;;;12.48;;
52031;SDS011;38044;45.148;39.604;2024-01-10T13:11:08;20.40;;;13.25;;
52031;SDS011;38044;45.148;39.604;2024-01-10T13:13:35;21.30;;;13.80;;
52031;SDS011;38044;45.148;39.604;2024-01-10T13:16:01;21.20;;;13.55;;
52031;SDS011;38044;45.148;39.604;2024-01-10T13:18:27;22.13;;;13.75;;
52031;SDS011;38044;45.148;39.604;2024-01-10T13:20:54;21.05;;;13.10;;
52031;SDS011;38044;45.148;39.604;2024-01-10T13:23:21;19.30;;;12.07;;
52031;SDS011;38044;45.148;39.604;2024-01-10T13:25:50;19.77;;;12.52;;
52031;SDS011;38044;45.148;39.604;2024-01-10T13:28:17;19.13;;;11.13;;
52031;SDS011;38044;45.148;39.604;2024-01-10T13:30:44;19.90;;;12.18;;
52031;SDS011;38044;45.148;39.604;2024-01-10T13:33:10;23.25;;;11.93;;
52031;SDS011;38044;45.148;39.604;2024-01-10T13:35:36;17.98;;;11.13;;
52031;SDS011;38044;45.148;39.604;2024-01-10T13:38:02;19.65;;;12.18;;
52031;SDS011;38044;45.148;39.604;2024-01-10T13:40:28;16.42;;;10.50;;
52031;SDS011;38044;45.148;39.604;2024-01-10T13:42:54;17.42;;;11.20;;
52031;SDS011;38044;45.148;39.604;2024-01-10T13:45:20;14.55;;;9.73;;
52031;SDS011;38044;45.148;39.604;2024-01-10T13:47:46;15.43;;;9.80;;
52031;SDS011;38044;45.148;39.604;2024-01-10T13:50:14;19.50;;;10.90;;
52031;SDS011;38044;45.148;39.604;2024-01-10T13:52:40;13.88;;;9.00;;
52031;SDS011;38044;45.148;39.604;2024-01-10T13:55:06;15.93;;;10.93;;
52031;SDS011;38044;45.148;39.604;2024-01-10T13:57:33;13.90;;;10.40;;
52031;SDS011;38044;45.148;39.604;2024-01-10T13:59:59;15.55;;;10.43;;
52031;SDS011;38044;45.148;39.604;2024-01-10T14:02:26;14.05;;;10.02;;
52031;SDS011;38044;45.148;39.604;2024-01-10T14:04:52;15.80;;;10.65;;
52031;SDS011;38044;45.148;39.604;2024-01-10T14:07:24;15.32;;;9.73;;
52031;SDS011;38044;45.148;39.604;2024-01-10T14:09:50;13.00;;;9.55;;
52031;SDS011;38044;45.148;39.604;2024-01-10T14:12:19;14.10;;;10.32;;
52031;SDS011;38044;45.148;39.604;2024-01-10T14:14:45;14.63;;;9.77;;
52031;SDS011;38044;45.148;39.604;2024-01-10T14:17:11;18.77;;;11.07;;
52031;SDS011;38044;45.148;39.604;2024-01-10T14:19:37;18.67;;;12.00;;
52031;SDS011;38044;45.148;39.604;2024-01-10T14:22:03;15.82;;;10.13;;
52031;SDS011;38044;45.148;39.604;2024-01-10T14:24:29;13.15;;;9.60;;
52031;SDS011;38044;45.148;39.604;2024-01-10T14:26:58;15.60;;;11.20;;